Etusivu
METAR-TAF:

METAR-TAF

Lentoasemat :

Dumas, Texas, Yhdysvallat

Leveyspiiri: 35-51-28N, Pituuspiiri: 102-00-47W, korkeus merenpinnasta: 1129 m

Tämänhetkinen sää

Tämä raportti tehtiin 15 minuuttia sitten, kello 05.35 UTC
Tuuli 23 kn pohjoisen/luoteesta puuskistuen 32 kn:hen
Lämpötila 15°C
Kosteus 59%
Ilmanpaine 1013 hPa
Näkyvyys: 8.0 km
Hajonneita pilviä 2800 ft:n korkeudessa
Hajonneita pilviä 3600 ft:n korkeudessa
Pilvistä 4200 ft:n korkeudessa
usvaa

METAR: KDUX 250535Z AUTO 34023G32KT 5SM HZ BKN028 BKN036 OVC042 15/07 A2991 RMK AO2 T01450065

Aika: 00:50 (05:50 UTC)


TAF: puuttuu

Säähavainnot ja -ennusteet yli 4000 lentoasemalta (METAR- ja TAF-raportit).

Käytössä olevat sääasemat on merkitty karttaan keltaisilla ja punaisilla pisteillä.

Aseta hiiri pisteen päälle nähdäksesi sääaseman nimen.

Klikkaa sitten nähdäksesi säähavainnot ja -ennusteet.

Kartan vaihtaminen: klikkaa mustalla rastilla varustettuja vihreitä pisteitä, niin voit zoomata sisään; viivalla varustettua vihreää pistettä, niin voit zoomata ulos tai vihreitä nuolia, niin pääset viereisille kartoille.


METAR-TAF: